createdAt,value
2022-12-19T00:00:32.858Z,30.67
2022-12-19T00:05:39.194Z,30.47
2022-12-19T00:10:41.420Z,28.30
2022-12-19T00:15:43.195Z,29.47
2022-12-19T00:20:44.597Z,27.00
2022-12-19T00:25:46.071Z,28.27
2022-12-19T00:30:48.776Z,29.57
2022-12-19T00:35:50.265Z,32.77
2022-12-19T00:40:51.736Z,25.30
2022-12-19T00:45:53.155Z,32.87
2022-12-19T00:51:02.472Z,28.40
2022-12-19T00:56:06.178Z,27.17
2022-12-19T01:01:33.299Z,33.37
2022-12-19T01:06:34.910Z,25.90
2022-12-19T01:11:54.848Z,24.27
2022-12-19T01:16:56.630Z,30.70
2022-12-19T01:21:58.051Z,26.30
2022-12-19T01:27:00.385Z,24.87
2022-12-19T01:32:01.897Z,28.67
2022-12-19T01:37:03.477Z,25.70
2022-12-19T01:42:18.466Z,31.17
2022-12-19T01:47:25.273Z,31.77
2022-12-19T01:52:26.771Z,30.53
2022-12-19T01:57:29.342Z,28.93
2022-12-19T02:02:43.331Z,28.30
2022-12-19T02:07:46.041Z,27.80
2022-12-19T02:12:47.539Z,24.33
2022-12-19T02:17:51.302Z,26.23
2022-12-19T02:23:00.576Z,28.87
2022-12-19T02:28:30.411Z,26.63
2022-12-19T02:33:46.435Z,23.57
2022-12-19T02:38:58.047Z,26.00
2022-12-19T02:44:00.334Z,31.20
2022-12-19T02:49:02.484Z,27.50
2022-12-19T02:54:05.382Z,29.20
2022-12-19T02:59:31.276Z,26.43
2022-12-19T03:04:52.100Z,28.97
2022-12-19T03:10:15.636Z,24.17
2022-12-19T03:15:17.696Z,22.45
2022-12-19T03:20:47.945Z,26.50
2022-12-19T03:25:54.216Z,26.13
2022-12-19T03:30:59.690Z,28.17
2022-12-19T03:36:04.907Z,24.93
2022-12-19T03:41:09.904Z,22.00
2022-12-19T03:46:20.591Z,29.93
2022-12-19T03:51:22.039Z,25.40
2022-12-19T03:56:26.659Z,24.97
2022-12-19T04:06:34.360Z,26.80
2022-12-19T04:11:41.901Z,26.00
2022-12-19T04:17:04.463Z,26.10
2022-12-19T04:22:15.404Z,26.63
2022-12-19T04:27:18.195Z,28.20
2022-12-19T04:32:20.909Z,27.27
2022-12-19T04:37:22.380Z,26.37
2022-12-19T04:42:23.820Z,27.83
2022-12-19T04:47:25.468Z,25.23
2022-12-19T04:52:26.967Z,23.83
2022-12-19T04:57:31.754Z,26.47
2022-12-19T05:02:33.291Z,27.83
2022-12-19T05:07:34.861Z,28.60
2022-12-19T05:12:36.316Z,25.97
2022-12-19T05:17:37.963Z,25.13
2022-12-19T05:22:39.378Z,29.03
2022-12-19T05:27:40.878Z,30.30
2022-12-19T05:32:42.604Z,29.47
2022-12-19T05:37:44.010Z,23.97
2022-12-19T05:42:45.550Z,26.93
2022-12-19T05:47:47.933Z,27.27
2022-12-19T05:52:49.442Z,29.57
2022-12-19T05:57:50.873Z,32.13
2022-12-19T06:02:52.426Z,28.60
2022-12-19T06:07:54.399Z,28.50
2022-12-19T06:12:55.947Z,29.70
2022-12-19T06:17:57.489Z,27.87
2022-12-19T06:22:59.229Z,31.77
2022-12-19T06:28:00.687Z,32.33
2022-12-19T06:33:02.215Z,29.43
2022-12-19T06:38:03.650Z,26.13
2022-12-19T06:43:05.176Z,26.93
2022-12-19T06:48:06.727Z,35.83
2022-12-19T06:53:08.141Z,34.87
2022-12-19T06:58:09.974Z,32.73
2022-12-19T07:03:14.800Z,30.87
2022-12-19T07:08:16.442Z,30.77
2022-12-19T07:13:17.860Z,28.70
2022-12-19T07:18:19.445Z,31.60
2022-12-19T07:23:22.046Z,32.20
2022-12-19T07:28:23.791Z,31.40
2022-12-19T07:33:25.256Z,29.40
2022-12-19T07:38:26.754Z,33.57
2022-12-19T07:43:28.288Z,32.23
2022-12-19T07:48:31.811Z,37.67
2022-12-19T07:53:33.273Z,32.70
2022-12-19T07:58:34.768Z,35.40
2022-12-19T08:03:36.222Z,32.33
2022-12-19T08:08:37.984Z,36.20
2022-12-19T08:13:46.001Z,30.37
2022-12-19T08:18:48.213Z,35.30
2022-12-19T08:23:49.960Z,34.23
2022-12-19T08:28:53.120Z,30.60
2022-12-19T08:33:56.877Z,36.70
2022-12-19T08:38:58.377Z,32.13
2022-12-19T08:44:01.784Z,39.97
2022-12-19T08:49:03.581Z,30.90
2022-12-19T08:54:07.755Z,31.57
2022-12-19T08:59:12.388Z,32.77
2022-12-19T09:05:19.497Z,32.17
2022-12-19T09:09:36.586Z,30.50
2022-12-19T09:14:38.078Z,31.70
2022-12-19T09:19:41.215Z,31.20
2022-12-19T09:24:47.114Z,34.60
2022-12-19T09:29:48.663Z,30.87
2022-12-19T09:34:50.125Z,33.43
2022-12-19T09:39:51.584Z,31.67
2022-12-19T09:45:09.190Z,32.20
2022-12-19T09:50:53.607Z,27.43
2022-12-19T09:55:58.318Z,26.77
2022-12-19T10:07:22.062Z,23.80
2022-12-19T10:12:46.642Z,23.07
2022-12-19T10:17:33.194Z,20.88
2022-12-19T10:22:43.868Z,25.40
2022-12-19T10:28:09.616Z,26.03
2022-12-19T10:33:22.657Z,25.27
2022-12-19T10:38:31.854Z,24.00
2022-12-19T10:43:46.564Z,25.53
2022-12-19T10:53:57.429Z,24.95
2022-12-19T10:59:00.451Z,22.97
2022-12-19T11:04:25.633Z,24.00
2022-12-19T11:09:35.918Z,23.23
2022-12-19T11:17:51.078Z,26.17
2022-12-19T11:29:43.816Z,25.52
2022-12-19T11:30:38.647Z,24.07
2022-12-19T11:37:03.189Z,22.20
2022-12-19T11:42:07.651Z,24.43
2022-12-19T11:47:29.071Z,25.42
2022-12-19T11:58:01.871Z,26.70
2022-12-19T12:03:18.802Z,26.17
2022-12-19T12:10:19.549Z,23.73
2022-12-19T12:24:21.294Z,21.70
2022-12-19T12:31:31.133Z,21.27
2022-12-19T12:32:00.975Z,21.73
2022-12-19T12:43:23.679Z,18.30
2022-12-19T12:48:46.088Z,16.73
2022-12-19T12:53:49.390Z,17.83
2022-12-19T12:58:54.011Z,16.87
2022-12-19T13:04:11.061Z,17.47
2022-12-19T13:09:28.479Z,20.87
2022-12-19T13:14:35.778Z,17.47
2022-12-19T13:19:53.163Z,18.47
2022-12-19T13:24:57.044Z,20.60
2022-12-19T13:30:01.302Z,16.77
2022-12-19T13:35:50.734Z,18.77
2022-12-19T13:40:33.174Z,17.63
2022-12-19T13:45:35.239Z,17.20
2022-12-19T13:50:41.340Z,20.40
2022-12-19T13:55:42.788Z,37.42
2022-12-19T14:00:47.443Z,25.53
2022-12-19T14:06:18.457Z,24.43
2022-12-19T14:11:41.032Z,23.83
2022-12-19T14:16:44.411Z,23.33
2022-12-19T14:22:07.141Z,22.20
2022-12-19T14:28:21.569Z,19.90
2022-12-19T14:33:44.840Z,22.60
2022-12-19T14:39:19.797Z,24.13
2022-12-19T14:43:59.488Z,21.43
2022-12-19T14:52:51.693Z,24.17
2022-12-19T14:59:47.776Z,25.57
2022-12-19T15:05:04.003Z,26.73
2022-12-19T15:11:07.603Z,29.67
2022-12-19T15:15:51.672Z,30.20
2022-12-19T15:20:56.621Z,32.33
2022-12-19T15:26:06.208Z,33.90
2022-12-19T15:31:34.748Z,32.43
2022-12-19T15:36:36.938Z,33.37
2022-12-19T15:41:38.471Z,39.60
2022-12-19T15:46:44.712Z,33.87
2022-12-19T15:51:50.555Z,37.53
2022-12-19T15:56:54.998Z,34.20
2022-12-19T16:01:57.464Z,40.00
2022-12-19T16:06:59.072Z,40.23
2022-12-19T16:12:00.634Z,35.90
2022-12-19T16:17:02.197Z,43.23
2022-12-19T16:22:17.560Z,45.67
2022-12-19T16:27:28.014Z,40.97
2022-12-19T16:32:29.449Z,45.03
2022-12-19T16:37:32.562Z,44.83
2022-12-19T16:42:34.210Z,48.97
2022-12-19T16:47:35.754Z,46.43
2022-12-19T16:52:42.353Z,47.20
2022-12-19T16:57:46.529Z,45.67
2022-12-19T17:02:53.219Z,44.20
2022-12-19T17:07:55.286Z,49.70
2022-12-19T17:12:58.252Z,46.83
2022-12-19T17:18:14.192Z,44.95
2022-12-19T17:23:19.039Z,59.27
2022-12-19T17:28:20.649Z,62.73
2022-12-19T17:33:24.192Z,60.40
2022-12-19T17:38:27.196Z,48.20
2022-12-19T17:43:28.847Z,47.17
2022-12-19T17:48:32.702Z,47.70
2022-12-19T17:53:34.171Z,47.87
2022-12-19T17:58:35.654Z,46.70
2022-12-19T18:03:37.245Z,45.33
2022-12-19T18:08:38.834Z,44.03
2022-12-19T18:13:40.297Z,49.97
2022-12-19T18:18:41.964Z,51.60
2022-12-19T18:23:44.518Z,55.47
2022-12-19T18:28:46.303Z,58.57
2022-12-19T18:33:48.032Z,59.03
2022-12-19T18:38:50.214Z,61.23
2022-12-19T18:43:51.765Z,56.73
2022-12-19T18:48:53.238Z,51.87
2022-12-19T18:53:56.955Z,55.33
2022-12-19T18:58:58.453Z,53.37
2022-12-19T19:04:00.181Z,53.90
2022-12-19T19:09:01.914Z,57.37
2022-12-19T19:14:03.423Z,52.37
2022-12-19T19:19:07.045Z,46.63
2022-12-19T19:24:15.141Z,51.88
2022-12-19T19:29:18.978Z,48.10
2022-12-19T19:34:31.248Z,44.53
2022-12-19T19:39:34.319Z,40.70
2022-12-19T19:44:35.921Z,45.40
2022-12-19T19:49:37.387Z,42.77
2022-12-19T19:54:38.817Z,40.38
2022-12-19T19:59:40.484Z,48.63
2022-12-19T20:04:42.017Z,42.07
2022-12-19T20:09:43.723Z,40.03
2022-12-19T20:14:45.250Z,40.87
2022-12-19T20:19:46.854Z,41.23
2022-12-19T20:24:48.381Z,38.42
2022-12-19T20:29:50.162Z,41.63
2022-12-19T20:34:51.641Z,41.57
2022-12-19T20:39:53.134Z,37.08
2022-12-19T20:44:54.606Z,38.10
2022-12-19T20:49:56.024Z,44.03
2022-12-19T20:54:57.490Z,41.13
2022-12-19T20:59:59.174Z,38.53
2022-12-19T21:05:00.726Z,42.87
2022-12-19T21:10:02.260Z,33.40
2022-12-19T21:15:04.127Z,39.72
2022-12-19T21:20:06.393Z,42.10
2022-12-19T21:25:08.478Z,38.20
2022-12-19T21:30:10.333Z,38.47
2022-12-19T21:35:12.104Z,34.42
2022-12-19T21:40:13.935Z,34.33
2022-12-19T21:45:15.879Z,36.28
2022-12-19T21:50:17.693Z,33.90
2022-12-19T21:55:19.213Z,35.40
2022-12-19T22:00:20.878Z,32.67
2022-12-19T22:05:22.350Z,29.17
2022-12-19T22:10:23.884Z,31.27
2022-12-19T22:15:25.324Z,29.42
2022-12-19T22:20:26.801Z,29.52
2022-12-19T22:25:28.276Z,27.30
2022-12-19T22:30:33.067Z,29.87
2022-12-19T22:35:34.639Z,32.10
2022-12-19T22:40:36.559Z,23.63
2022-12-19T22:45:38.075Z,23.98
2022-12-19T22:50:45.411Z,22.50
2022-12-19T22:55:46.866Z,22.50
2022-12-19T23:00:48.343Z,24.55
2022-12-19T23:05:51.995Z,22.45
2022-12-19T23:15:57.289Z,23.48
2022-12-19T23:21:13.144Z,19.08
2022-12-19T23:26:21.437Z,21.02
2022-12-19T23:31:23.780Z,23.58
2022-12-19T23:41:47.739Z,18.92
2022-12-19T23:46:49.385Z,20.48
2022-12-19T23:51:50.879Z,18.83
2022-12-19T23:56:53.356Z,17.77
